createdAt,value
2018-08-06T00:00:33.800Z,14.97
2018-08-06T00:03:03.813Z,13.97
2018-08-06T00:05:33.618Z,13.43
2018-08-06T00:08:03.247Z,13.00
2018-08-06T00:10:33.128Z,13.43
2018-08-06T00:13:02.860Z,13.63
2018-08-06T00:15:32.740Z,13.33
2018-08-06T00:18:02.402Z,13.30
2018-08-06T00:20:32.129Z,11.77
2018-08-06T00:23:02.035Z,12.13
2018-08-06T00:25:31.890Z,11.67
2018-08-06T00:28:01.773Z,9.77
2018-08-06T00:30:31.547Z,10.77
2018-08-06T00:33:08.783Z,11.00
2018-08-06T00:35:41.304Z,10.57
2018-08-06T00:38:17.589Z,10.17
2018-08-06T00:40:51.542Z,9.50
2018-08-06T00:43:21.199Z,8.97
2018-08-06T00:45:50.868Z,9.57
2018-08-06T00:48:19.878Z,9.53
2018-08-06T00:50:49.719Z,9.37
2018-08-06T00:53:19.404Z,9.93
2018-08-06T00:55:49.236Z,8.73
2018-08-06T00:58:18.963Z,9.50
2018-08-06T01:00:48.833Z,9.93
2018-08-06T01:03:18.586Z,9.97
2018-08-06T01:05:48.509Z,9.53
2018-08-06T01:08:18.418Z,9.93
2018-08-06T01:10:48.316Z,10.00
2018-08-06T01:13:18.143Z,8.60
2018-08-06T01:15:48.062Z,9.60
2018-08-06T01:18:17.844Z,9.80
2018-08-06T01:20:47.627Z,9.50
2018-08-06T01:23:17.357Z,8.83
2018-08-06T01:25:47.167Z,9.53
2018-08-06T01:28:16.944Z,8.90
2018-08-06T01:30:46.816Z,8.97
2018-08-06T01:33:16.515Z,9.37
2018-08-06T01:35:46.395Z,9.47
2018-08-06T01:38:16.122Z,8.63
2018-08-06T01:40:45.919Z,9.77
2018-08-06T01:43:15.692Z,9.30
2018-08-06T01:45:45.658Z,9.00
2018-08-06T01:48:15.300Z,9.80
2018-08-06T01:50:45.272Z,9.63
2018-08-06T01:53:14.932Z,9.53
2018-08-06T01:55:44.623Z,9.40
2018-08-06T01:58:14.296Z,9.50
2018-08-06T02:00:43.968Z,9.03
2018-08-06T02:03:13.765Z,9.60
2018-08-06T02:05:43.688Z,9.00
2018-08-06T02:08:13.539Z,9.60
2018-08-06T02:10:43.333Z,9.30
2018-08-06T02:13:13.268Z,10.00
2018-08-06T02:15:43.062Z,9.03
2018-08-06T02:18:13.000Z,9.23
2018-08-06T02:20:42.103Z,9.90
2018-08-06T02:23:11.863Z,9.20
2018-08-06T02:25:41.824Z,9.77
2018-08-06T02:28:11.494Z,8.77
2018-08-06T02:30:41.304Z,9.17
2018-08-06T02:33:11.204Z,8.00
2018-08-06T02:35:41.177Z,8.93
2018-08-06T02:38:10.934Z,7.90
2018-08-06T02:40:40.908Z,8.77
2018-08-06T02:43:10.768Z,8.57
2018-08-06T02:45:40.631Z,8.40
2018-08-06T02:48:10.497Z,9.00
2018-08-06T02:50:40.465Z,8.27
2018-08-06T02:53:10.308Z,8.27
2018-08-06T02:55:39.980Z,9.07
2018-08-06T02:58:09.731Z,8.10
2018-08-06T03:00:39.458Z,9.00
2018-08-06T03:03:09.208Z,8.87
2018-08-06T03:05:38.874Z,8.43
2018-08-06T03:08:08.736Z,8.97
2018-08-06T03:10:38.487Z,9.80
2018-08-06T03:13:08.358Z,9.30
2018-08-06T03:15:38.111Z,9.20
2018-08-06T03:18:07.931Z,9.57
2018-08-06T03:20:37.736Z,9.13
2018-08-06T03:23:07.632Z,8.63
2018-08-06T03:25:37.376Z,9.40
2018-08-06T03:28:07.391Z,9.17
2018-08-06T03:30:37.220Z,9.20
2018-08-06T03:33:07.164Z,9.80
2018-08-06T03:35:36.272Z,8.20
2018-08-06T03:38:06.036Z,9.30
2018-08-06T03:40:35.867Z,9.10
2018-08-06T03:43:05.761Z,9.17
2018-08-06T03:45:35.552Z,9.50
2018-08-06T03:48:05.569Z,9.50
2018-08-06T03:50:35.672Z,8.90
2018-08-06T03:53:05.664Z,8.80
2018-08-06T03:55:35.934Z,7.93
2018-08-06T03:58:06.110Z,8.00
2018-08-06T04:00:35.358Z,9.20
2018-08-06T04:03:05.174Z,8.60
2018-08-06T04:05:35.030Z,8.60
2018-08-06T04:08:04.826Z,9.23
2018-08-06T04:10:35.028Z,9.60
2018-08-06T04:13:05.148Z,8.40
2018-08-06T04:15:35.125Z,9.47
2018-08-06T04:18:05.016Z,8.80
2018-08-06T04:20:34.709Z,9.40
2018-08-06T04:23:04.537Z,8.87
2018-08-06T04:25:34.206Z,9.77
2018-08-06T04:28:04.182Z,8.63
2018-08-06T04:30:34.014Z,8.90
2018-08-06T04:33:04.019Z,8.33
2018-08-06T04:35:33.744Z,9.40
2018-08-06T04:38:03.612Z,8.43
2018-08-06T04:40:33.457Z,8.60
2018-08-06T04:43:03.243Z,8.77
2018-08-06T04:45:33.105Z,9.50
2018-08-06T04:48:02.907Z,9.00
2018-08-06T04:50:32.828Z,8.70
2018-08-06T04:53:02.698Z,9.30
2018-08-06T04:55:31.787Z,8.13
2018-08-06T04:58:01.569Z,9.60
2018-08-06T05:00:31.348Z,8.40
2018-08-06T05:03:02.021Z,8.20
2018-08-06T05:05:31.812Z,7.90
2018-08-06T05:08:01.593Z,8.10
2018-08-06T05:10:31.382Z,8.60
2018-08-06T05:13:01.233Z,8.53
2018-08-06T05:15:31.099Z,8.60
2018-08-06T05:18:00.964Z,7.90
2018-08-06T05:20:30.664Z,7.47
2018-08-06T05:23:00.382Z,7.83
2018-08-06T05:25:30.175Z,8.50
2018-08-06T05:28:00.014Z,8.63
2018-08-06T05:30:29.757Z,8.77
2018-08-06T05:32:59.632Z,8.27
2018-08-06T05:35:29.328Z,7.00
2018-08-06T05:37:59.227Z,9.03
2018-08-06T05:40:28.949Z,7.40
2018-08-06T05:42:58.626Z,7.73
2018-08-06T05:45:28.385Z,7.37
2018-08-06T05:47:58.208Z,7.37
2018-08-06T05:50:28.005Z,7.40
2018-08-06T05:52:57.802Z,7.85
2018-08-06T05:55:27.428Z,7.27
2018-08-06T05:57:57.125Z,7.10
2018-08-06T06:00:26.736Z,6.80
2018-08-06T06:02:56.349Z,6.40
2018-08-06T06:05:25.939Z,6.40
2018-08-06T06:07:55.727Z,6.20
2018-08-06T06:10:25.489Z,6.40
2018-08-06T06:12:55.454Z,6.13
2018-08-06T06:15:25.308Z,6.30
2018-08-06T06:17:55.082Z,5.53
2018-08-06T06:20:24.941Z,6.00
2018-08-06T06:22:54.917Z,6.10
2018-08-06T06:25:24.677Z,6.57
2018-08-06T06:27:54.542Z,6.37
2018-08-06T06:30:24.403Z,6.07
2018-08-06T06:32:54.289Z,5.73
2018-08-06T06:35:24.130Z,5.80
2018-08-06T06:37:53.993Z,6.30
2018-08-06T06:40:23.766Z,6.07
2018-08-06T06:42:53.503Z,5.53
2018-08-06T06:45:23.276Z,5.53
2018-08-06T06:47:53.142Z,5.93
2018-08-06T06:50:22.388Z,5.63
2018-08-06T06:52:52.185Z,5.70
2018-08-06T06:55:22.109Z,6.00
2018-08-06T06:57:51.808Z,6.23
2018-08-06T07:00:21.488Z,5.93
2018-08-06T07:02:51.219Z,5.23
2018-08-06T07:05:21.032Z,5.90
2018-08-06T07:07:50.956Z,5.40
2018-08-06T07:10:20.935Z,4.47
2018-08-06T07:12:50.755Z,4.40
2018-08-06T07:15:20.500Z,4.47
2018-08-06T07:17:50.232Z,4.53
2018-08-06T07:20:21.685Z,3.80
2018-08-06T07:22:51.587Z,6.27
2018-08-06T07:25:21.347Z,5.00
2018-08-06T07:27:51.113Z,4.10
2018-08-06T07:30:20.868Z,3.13
2018-08-06T07:32:50.748Z,4.33
2018-08-06T07:35:20.688Z,4.10
2018-08-06T07:37:50.450Z,3.50
2018-08-06T07:40:20.420Z,4.07
2018-08-06T07:42:50.187Z,4.12
2018-08-06T07:45:20.982Z,3.92
2018-08-06T07:47:51.316Z,3.30
2018-08-06T07:50:21.741Z,3.67
2018-08-06T07:52:51.379Z,4.08
2018-08-06T07:55:21.191Z,4.05
2018-08-06T07:57:51.074Z,4.03
2018-08-06T08:00:21.387Z,4.00
2018-08-06T08:02:51.233Z,3.92
2018-08-06T08:05:21.028Z,3.47
2018-08-06T08:07:50.929Z,4.15
2018-08-06T08:10:22.325Z,4.03
2018-08-06T08:12:52.082Z,3.58
2018-08-06T08:15:25.243Z,4.20
2018-08-06T08:17:55.820Z,3.87
2018-08-06T08:20:25.648Z,3.85
2018-08-06T08:22:55.376Z,4.28
2018-08-06T08:25:25.284Z,4.20
2018-08-06T08:27:55.138Z,4.67
2018-08-06T08:30:24.752Z,4.25
2018-08-06T08:32:54.424Z,5.47
2018-08-06T08:35:30.803Z,4.15
2018-08-06T08:38:00.806Z,4.95
2018-08-06T08:40:30.708Z,6.28
2018-08-06T08:43:00.409Z,4.58
2018-08-06T08:45:30.081Z,4.87
2018-08-06T08:47:59.808Z,4.08
2018-08-06T08:50:29.597Z,4.53
2018-08-06T08:52:59.255Z,4.50
2018-08-06T08:55:29.242Z,4.15
2018-08-06T08:57:59.002Z,4.45
2018-08-06T09:00:28.954Z,4.33
2018-08-06T09:02:58.723Z,4.05
2018-08-06T09:05:28.625Z,4.20
2018-08-06T09:07:58.451Z,4.70
2018-08-06T09:10:28.195Z,4.40
2018-08-06T09:12:57.939Z,4.20
2018-08-06T09:15:28.355Z,3.85
2018-08-06T09:17:57.988Z,3.67
2018-08-06T09:20:27.904Z,4.03
2018-08-06T09:22:57.757Z,5.03
2018-08-06T09:25:27.413Z,4.80
2018-08-06T09:27:57.091Z,4.37
2018-08-06T09:30:26.807Z,4.60
2018-08-06T09:32:57.492Z,4.22
2018-08-06T09:35:27.406Z,4.40
2018-08-06T09:37:57.284Z,4.30
2018-08-06T09:40:27.094Z,3.80
2018-08-06T09:42:56.944Z,4.40
2018-08-06T09:45:26.758Z,4.40
2018-08-06T09:47:56.729Z,4.25
2018-08-06T09:50:26.487Z,4.10
2018-08-06T09:52:56.603Z,4.47
2018-08-06T09:55:28.800Z,4.67
2018-08-06T09:57:58.670Z,4.42
2018-08-06T10:00:33.519Z,5.40
2018-08-06T10:03:03.682Z,4.67
2018-08-06T10:05:33.018Z,4.50
2018-08-06T10:08:02.749Z,4.37
2018-08-06T10:10:32.680Z,4.90
2018-08-06T10:13:02.624Z,4.90
2018-08-06T10:15:32.484Z,4.28
2018-08-06T10:18:02.295Z,4.40
2018-08-06T10:20:32.014Z,4.37
2018-08-06T10:23:01.821Z,4.90
2018-08-06T10:25:31.686Z,4.60
2018-08-06T10:28:00.792Z,4.60
2018-08-06T10:30:30.839Z,5.10
2018-08-06T10:33:00.654Z,5.00
2018-08-06T10:35:30.512Z,5.03
2018-08-06T10:38:00.380Z,4.73
2018-08-06T10:40:30.322Z,4.30
2018-08-06T10:43:00.009Z,4.87
2018-08-06T10:45:29.810Z,5.60
2018-08-06T10:47:59.585Z,5.70
2018-08-06T10:50:29.132Z,5.60
2018-08-06T10:52:58.903Z,5.63
2018-08-06T10:55:28.657Z,6.10
2018-08-06T10:57:58.267Z,5.33
2018-08-06T11:00:28.071Z,5.40
2018-08-06T11:02:57.815Z,5.20
2018-08-06T11:05:27.629Z,5.07
2018-08-06T11:07:57.517Z,5.67
2018-08-06T11:10:27.316Z,5.80
2018-08-06T11:12:57.140Z,5.77
2018-08-06T11:15:27.259Z,6.87
2018-08-06T11:17:57.116Z,7.27
2018-08-06T11:20:27.097Z,7.23
2018-08-06T11:22:57.015Z,5.90
2018-08-06T11:25:26.872Z,5.77
2018-08-06T11:27:56.649Z,6.20
2018-08-06T11:30:26.541Z,6.07
2018-08-06T11:32:56.451Z,5.13
2018-08-06T11:35:26.377Z,5.83
2018-08-06T11:37:56.322Z,5.47
2018-08-06T11:40:26.103Z,5.03
2018-08-06T11:42:56.034Z,5.47
2018-08-06T11:45:25.784Z,5.73
2018-08-06T11:47:55.612Z,5.20
2018-08-06T11:50:25.405Z,5.53
2018-08-06T11:52:55.155Z,6.60
2018-08-06T11:55:24.944Z,6.07
2018-08-06T11:57:54.700Z,5.63
2018-08-06T12:00:26.420Z,5.50
2018-08-06T12:02:56.266Z,5.90
2018-08-06T12:05:26.168Z,5.60
2018-08-06T12:07:55.992Z,5.50
2018-08-06T12:10:25.855Z,6.17
2018-08-06T12:12:55.545Z,5.30
2018-08-06T12:15:25.480Z,5.90
2018-08-06T12:17:55.133Z,6.07
2018-08-06T12:20:24.888Z,6.13
2018-08-06T12:22:54.540Z,5.30
2018-08-06T12:25:24.226Z,5.47
2018-08-06T12:27:53.964Z,5.83
2018-08-06T12:30:24.279Z,5.97
2018-08-06T12:32:54.590Z,6.13
2018-08-06T12:35:24.454Z,5.37
2018-08-06T12:37:54.290Z,5.50
2018-08-06T12:40:24.430Z,6.10
2018-08-06T12:42:54.236Z,6.43
2018-08-06T12:45:23.988Z,5.60
2018-08-06T12:47:53.951Z,5.70
2018-08-06T12:50:23.106Z,5.90
2018-08-06T12:52:52.889Z,5.20
2018-08-06T12:55:22.796Z,6.00
2018-08-06T12:57:52.544Z,5.40
2018-08-06T13:00:25.160Z,5.87
2018-08-06T13:02:54.683Z,5.30
2018-08-06T13:05:25.168Z,5.33
2018-08-06T13:07:54.863Z,6.00
2018-08-06T13:10:24.733Z,5.83
2018-08-06T13:12:54.480Z,5.60
2018-08-06T13:15:24.344Z,6.10
2018-08-06T13:17:53.406Z,6.23
2018-08-06T13:20:23.197Z,5.90
2018-08-06T13:22:52.818Z,6.17
2018-08-06T13:25:22.579Z,5.83
2018-08-06T13:27:52.334Z,6.20
2018-08-06T13:30:22.198Z,6.23
2018-08-06T13:32:51.946Z,6.97
2018-08-06T13:35:21.826Z,6.70
2018-08-06T13:37:51.671Z,5.70
2018-08-06T13:40:27.696Z,6.10
2018-08-06T13:42:58.231Z,5.43
2018-08-06T13:45:28.097Z,5.73
2018-08-06T13:47:57.864Z,6.00
2018-08-06T13:50:27.628Z,5.67
2018-08-06T13:52:57.534Z,7.17
2018-08-06T13:55:27.252Z,5.60
2018-08-06T13:57:57.068Z,5.93
2018-08-06T14:00:26.904Z,5.80
2018-08-06T14:02:56.115Z,5.80
2018-08-06T14:05:25.943Z,5.20
2018-08-06T14:07:55.837Z,6.23
2018-08-06T14:10:25.593Z,5.90
2018-08-06T14:12:55.360Z,6.03
2018-08-06T14:15:25.112Z,5.60
2018-08-06T14:17:54.914Z,5.20
2018-08-06T14:20:24.649Z,5.90
2018-08-06T14:22:54.508Z,5.17
2018-08-06T14:25:24.293Z,5.80
2018-08-06T14:27:54.082Z,5.20
2018-08-06T14:30:23.937Z,5.47
2018-08-06T14:32:53.295Z,5.47
2018-08-06T14:35:22.977Z,6.20
2018-08-06T14:37:52.819Z,5.83
2018-08-06T14:40:22.632Z,6.50
2018-08-06T14:42:55.083Z,5.60
2018-08-06T14:45:24.810Z,5.20
2018-08-06T14:47:54.668Z,6.23
2018-08-06T14:50:23.778Z,6.17
2018-08-06T14:52:52.756Z,6.23
2018-08-06T14:55:22.582Z,6.20
2018-08-06T14:57:52.341Z,5.57
2018-08-06T15:00:23.265Z,5.73
2018-08-06T15:02:53.868Z,5.03
2018-08-06T15:05:23.500Z,5.53
2018-08-06T15:07:53.346Z,5.23
2018-08-06T15:10:23.290Z,5.33
2018-08-06T15:12:52.550Z,5.10
2018-08-06T15:15:22.310Z,5.40
2018-08-06T15:17:52.213Z,5.67
2018-08-06T15:20:22.085Z,5.77
2018-08-06T15:22:52.143Z,6.50
2018-08-06T15:25:22.949Z,5.97
2018-08-06T15:27:52.949Z,5.47
2018-08-06T15:30:22.772Z,5.10
2018-08-06T15:32:52.560Z,5.80
2018-08-06T15:35:22.123Z,6.03
2018-08-06T15:37:52.027Z,6.37
2018-08-06T15:40:22.064Z,5.50
2018-08-06T15:42:51.215Z,5.43
2018-08-06T15:45:20.956Z,5.70
2018-08-06T15:47:50.681Z,5.17
2018-08-06T15:50:21.764Z,5.80
2018-08-06T15:52:51.606Z,5.93
2018-08-06T15:55:22.274Z,6.07
2018-08-06T15:57:51.275Z,5.70
2018-08-06T16:00:21.223Z,6.50
2018-08-06T16:02:51.004Z,5.50
2018-08-06T16:05:21.055Z,5.70
2018-08-06T16:07:50.872Z,5.07
2018-08-06T16:10:20.644Z,5.93
2018-08-06T16:12:50.404Z,6.00
2018-08-06T16:15:20.237Z,5.50
2018-08-06T16:17:50.009Z,5.63
2018-08-06T16:20:19.860Z,5.13
2018-08-06T16:22:49.592Z,5.17
2018-08-06T16:25:18.636Z,5.20
2018-08-06T16:27:48.435Z,5.17
2018-08-06T16:30:19.965Z,4.60
2018-08-06T16:32:49.981Z,5.83
2018-08-06T16:35:21.079Z,5.17
2018-08-06T16:37:51.360Z,5.40
2018-08-06T16:40:21.145Z,4.47
2018-08-06T16:42:50.402Z,5.67
2018-08-06T16:45:20.339Z,6.07
2018-08-06T16:47:50.227Z,5.53
2018-08-06T16:50:20.142Z,5.57
2018-08-06T16:52:50.186Z,5.50
2018-08-06T16:55:19.838Z,5.27
2018-08-06T16:57:49.743Z,5.70
2018-08-06T17:00:21.523Z,5.33
2018-08-06T17:02:52.017Z,5.73
2018-08-06T17:05:21.723Z,4.70
2018-08-06T17:07:51.286Z,4.80
2018-08-06T17:10:21.784Z,4.70
2018-08-06T17:12:52.857Z,5.13
2018-08-06T17:15:22.706Z,5.20
2018-08-06T17:17:53.699Z,5.23
2018-08-06T17:20:23.787Z,5.13
2018-08-06T17:22:53.583Z,5.47
2018-08-06T17:25:22.467Z,5.20
2018-08-06T17:27:52.280Z,5.30
2018-08-06T17:30:21.725Z,5.60
2018-08-06T17:32:51.454Z,7.33
2018-08-06T17:35:21.055Z,8.00
2018-08-06T17:37:50.521Z,7.60
2018-08-06T17:40:20.517Z,6.87
2018-08-06T17:42:51.210Z,6.40
2018-08-06T17:45:24.025Z,6.90
2018-08-06T17:47:54.852Z,5.80
2018-08-06T17:50:24.613Z,6.23
2018-08-06T17:52:54.394Z,8.30
2018-08-06T17:55:24.133Z,6.87
2018-08-06T17:57:53.547Z,7.03
2018-08-06T18:00:23.904Z,6.87
2018-08-06T18:02:53.330Z,6.00
2018-08-06T18:05:22.752Z,7.30
2018-08-06T18:07:52.162Z,6.60
2018-08-06T18:10:21.698Z,6.30
2018-08-06T18:12:51.155Z,5.50
2018-08-06T18:15:20.598Z,6.70
2018-08-06T18:17:50.018Z,7.60
2018-08-06T18:20:19.865Z,12.60
2018-08-06T18:22:49.312Z,16.17
2018-08-06T18:25:19.745Z,13.57
2018-08-06T18:27:50.097Z,9.00
2018-08-06T18:30:21.101Z,10.90
2018-08-06T18:32:50.978Z,16.97
2018-08-06T18:35:20.828Z,20.53
2018-08-06T18:37:50.266Z,16.03
2018-08-06T18:40:20.853Z,13.60
2018-08-06T18:42:51.441Z,12.00
2018-08-06T18:45:22.924Z,20.03
2018-08-06T18:47:54.103Z,12.70
2018-08-06T18:50:25.044Z,12.33
2018-08-06T18:52:54.828Z,9.23
2018-08-06T18:55:25.097Z,8.00
2018-08-06T18:57:54.529Z,9.20
2018-08-06T19:00:25.642Z,11.43
2018-08-06T19:02:56.090Z,9.97
2018-08-06T19:05:26.528Z,8.57
2018-08-06T19:07:57.417Z,6.80
2018-08-06T19:10:27.996Z,7.37
2018-08-06T19:13:03.035Z,6.77
2018-08-06T19:15:32.493Z,6.30
2018-08-06T19:18:06.935Z,7.00
2018-08-06T19:20:36.362Z,6.90
2018-08-06T19:23:05.923Z,6.73
2018-08-06T19:25:35.546Z,6.67
2018-08-06T19:28:05.326Z,6.67
2018-08-06T19:30:40.043Z,6.63
2018-08-06T19:33:09.557Z,7.40
2018-08-06T19:35:39.341Z,6.40
2018-08-06T19:38:09.188Z,7.20
2018-08-06T19:40:39.383Z,7.10
2018-08-06T19:43:40.798Z,6.90
2018-08-06T19:46:10.451Z,6.27
2018-08-06T19:48:40.388Z,6.67
2018-08-06T19:51:09.863Z,6.87
2018-08-06T19:53:39.684Z,6.60
2018-08-06T19:56:15.819Z,6.40
2018-08-06T19:58:45.702Z,7.30
2018-08-06T20:01:15.652Z,6.87
2018-08-06T20:03:45.328Z,7.37
2018-08-06T20:06:14.995Z,6.60
2018-08-06T20:08:45.423Z,7.17
2018-08-06T20:11:15.432Z,6.90
2018-08-06T20:13:46.419Z,7.00
2018-08-06T20:16:17.041Z,6.90
2018-08-06T20:18:48.269Z,6.93
2018-08-06T20:21:17.983Z,7.33
2018-08-06T20:23:49.044Z,7.63
2018-08-06T20:26:19.036Z,6.70
2018-08-06T20:28:49.074Z,7.10
2018-08-06T20:31:19.940Z,6.83
2018-08-06T20:33:49.832Z,6.40
2018-08-06T20:36:20.733Z,6.80
2018-08-06T20:38:52.072Z,7.00
2018-08-06T20:41:22.557Z,7.30
2018-08-06T20:43:52.939Z,7.03
2018-08-06T20:46:22.651Z,7.17
2018-08-06T20:48:52.506Z,7.50
2018-08-06T20:51:22.388Z,7.93
2018-08-06T20:53:52.317Z,7.60
2018-08-06T20:56:22.028Z,7.20
2018-08-06T20:58:52.005Z,7.37
2018-08-06T21:01:21.958Z,7.47
2018-08-06T21:03:51.645Z,7.30
2018-08-06T21:06:21.605Z,7.67
2018-08-06T21:08:51.697Z,7.90
2018-08-06T21:11:21.453Z,7.27
2018-08-06T21:13:51.193Z,7.00
2018-08-06T21:16:21.019Z,7.60
2018-08-06T21:18:50.938Z,7.83
2018-08-06T21:21:21.044Z,8.50
2018-08-06T21:23:50.836Z,8.33
2018-08-06T21:26:20.701Z,8.90
2018-08-06T21:28:50.550Z,7.40
2018-08-06T21:31:20.309Z,8.70
2018-08-06T21:33:49.981Z,8.20
2018-08-06T21:36:19.780Z,8.37
2018-08-06T21:38:49.039Z,7.40
2018-08-06T21:41:18.750Z,7.30
2018-08-06T21:43:48.605Z,7.40
2018-08-06T21:46:18.387Z,8.07
2018-08-06T21:48:48.228Z,8.50
2018-08-06T21:51:17.283Z,8.43
2018-08-06T21:53:47.079Z,8.37
2018-08-06T21:56:16.896Z,8.30
2018-08-06T21:58:46.811Z,8.40
2018-08-06T22:01:16.433Z,8.20
2018-08-06T22:03:46.157Z,8.10
2018-08-06T22:06:15.935Z,8.00
2018-08-06T22:08:45.813Z,9.10
2018-08-06T22:11:15.103Z,9.30
2018-08-06T22:13:44.744Z,9.10
2018-08-06T22:16:14.544Z,9.13
2018-08-06T22:18:44.307Z,9.10
2018-08-06T22:21:14.067Z,8.53
2018-08-06T22:23:43.707Z,8.70
2018-08-06T22:26:13.677Z,9.00
2018-08-06T22:28:43.355Z,9.50
2018-08-06T22:31:13.235Z,8.70
2018-08-06T22:33:42.952Z,9.00
2018-08-06T22:36:12.674Z,9.20
2018-08-06T22:38:42.579Z,8.27
2018-08-06T22:41:12.504Z,8.90
2018-08-06T22:43:42.309Z,8.80
2018-08-06T22:46:12.020Z,8.53
2018-08-06T22:48:42.012Z,8.57
2018-08-06T22:51:11.844Z,9.50
2018-08-06T22:53:41.561Z,8.70
2018-08-06T22:56:11.901Z,9.13
2018-08-06T22:58:41.696Z,8.57
2018-08-06T23:01:12.178Z,8.90
2018-08-06T23:03:41.075Z,9.20
2018-08-06T23:06:10.934Z,9.13
2018-08-06T23:08:40.792Z,9.20
2018-08-06T23:11:10.744Z,8.63
2018-08-06T23:13:40.338Z,8.90
2018-08-06T23:16:10.269Z,8.53
2018-08-06T23:18:40.061Z,9.40
2018-08-06T23:21:09.796Z,9.10
2018-08-06T23:23:39.299Z,9.63
2018-08-06T23:26:09.068Z,8.80
2018-08-06T23:28:38.865Z,9.73
2018-08-06T23:31:08.709Z,9.00
2018-08-06T23:33:38.357Z,9.30
2018-08-06T23:36:08.804Z,8.37
2018-08-06T23:38:38.593Z,9.47
2018-08-06T23:41:08.440Z,10.07
2018-08-06T23:43:37.344Z,8.67
2018-08-06T23:46:07.027Z,8.63
2018-08-06T23:48:36.808Z,8.67
2018-08-06T23:51:07.108Z,8.80
2018-08-06T23:53:36.785Z,9.73
2018-08-06T23:56:06.515Z,9.30
2018-08-06T23:58:36.300Z,9.00
